createdAt,value
2019-01-06T00:00:43.721Z,8.70
2019-01-06T00:01:43.678Z,8.40
2019-01-06T00:02:43.635Z,8.20
2019-01-06T00:03:43.595Z,8.70
2019-01-06T00:04:43.547Z,8.70
2019-01-06T00:05:43.504Z,8.80
2019-01-06T00:06:43.464Z,8.20
2019-01-06T00:07:43.419Z,8.50
2019-01-06T00:08:43.381Z,8.90
2019-01-06T00:09:43.338Z,8.50
2019-01-06T00:10:43.299Z,9.20
2019-01-06T00:11:43.256Z,8.50
2019-01-06T00:12:43.206Z,8.60
2019-01-06T00:13:43.165Z,7.70
2019-01-06T00:14:43.125Z,7.30
2019-01-06T00:15:43.084Z,8.00
2019-01-06T00:16:43.035Z,7.60
2019-01-06T00:17:42.995Z,7.40
2019-01-06T00:18:42.956Z,7.60
2019-01-06T00:19:42.908Z,7.40
2019-01-06T00:20:42.872Z,8.10
2019-01-06T00:21:42.827Z,7.50
2019-01-06T00:22:42.784Z,8.40
2019-01-06T00:23:42.744Z,7.50
2019-01-06T00:24:42.695Z,7.00
2019-01-06T00:25:42.658Z,7.80
2019-01-06T00:26:42.613Z,7.50
2019-01-06T00:27:42.569Z,6.90
2019-01-06T00:28:42.530Z,6.50
2019-01-06T00:29:42.487Z,6.50
2019-01-06T00:30:42.443Z,6.50
2019-01-06T00:31:42.401Z,7.10
2019-01-06T00:32:42.362Z,7.10
2019-01-06T00:33:42.318Z,7.60
2019-01-06T00:34:42.275Z,7.90
2019-01-06T00:35:42.298Z,6.70
2019-01-06T00:36:42.186Z,6.90
2019-01-06T00:37:42.145Z,7.00
2019-01-06T00:38:42.102Z,7.00
2019-01-06T00:39:42.059Z,7.30
2019-01-06T00:40:42.021Z,7.60
2019-01-06T00:41:41.977Z,7.30
2019-01-06T00:42:41.935Z,7.30
2019-01-06T00:43:41.894Z,7.10
2019-01-06T00:44:41.844Z,7.80
2019-01-06T00:45:41.805Z,7.30
2019-01-06T00:46:41.764Z,7.30
2019-01-06T00:47:41.724Z,7.80
2019-01-06T00:48:41.675Z,7.80
2019-01-06T00:49:41.635Z,8.60
2019-01-06T00:50:41.592Z,7.80
2019-01-06T00:51:41.548Z,8.00
2019-01-06T00:52:41.511Z,7.50
2019-01-06T00:53:41.467Z,8.20
2019-01-06T00:54:41.425Z,7.40
2019-01-06T00:55:41.384Z,7.70
2019-01-06T00:56:41.334Z,7.40
2019-01-06T00:57:41.295Z,7.40
2019-01-06T00:58:41.294Z,8.00
2019-01-06T00:59:41.207Z,7.50
2019-01-06T01:00:41.172Z,6.80
2019-01-06T01:01:41.127Z,7.50
2019-01-06T01:02:41.083Z,8.00
2019-01-06T01:03:41.038Z,7.00
2019-01-06T01:04:41.001Z,7.60
2019-01-06T01:05:40.955Z,7.40
2019-01-06T01:06:40.914Z,8.50
2019-01-06T01:07:40.875Z,8.70
2019-01-06T01:08:40.823Z,8.80
2019-01-06T01:09:40.784Z,9.40
2019-01-06T01:10:40.742Z,8.10
2019-01-06T01:11:40.697Z,8.90
2019-01-06T01:12:40.664Z,7.70
2019-01-06T01:13:40.616Z,8.00
2019-01-06T01:14:40.572Z,8.20
2019-01-06T01:15:40.531Z,8.80
2019-01-06T01:16:40.484Z,8.20
2019-01-06T01:17:40.444Z,8.40
2019-01-06T01:18:40.403Z,8.00
2019-01-06T01:19:41.718Z,8.20
2019-01-06T01:20:40.316Z,8.60
2019-01-06T01:21:40.273Z,8.70
2019-01-06T01:22:40.231Z,8.90
2019-01-06T01:23:40.187Z,8.40
2019-01-06T01:24:40.149Z,8.90
2019-01-06T01:25:40.104Z,8.70
2019-01-06T01:26:48.095Z,9.40
2019-01-06T01:27:40.022Z,9.00
2019-01-06T01:28:39.975Z,9.10
2019-01-06T01:29:39.935Z,9.00
2019-01-06T01:30:39.892Z,9.00
2019-01-06T01:31:39.846Z,9.50
2019-01-06T01:32:39.890Z,9.30
2019-01-06T01:33:39.764Z,9.70
2019-01-06T01:34:39.720Z,9.20
2019-01-06T01:35:39.679Z,9.30
2019-01-06T01:36:39.638Z,9.60
2019-01-06T01:37:39.594Z,10.30
2019-01-06T01:38:39.551Z,10.00
2019-01-06T01:39:39.514Z,10.40
2019-01-06T01:40:39.465Z,10.40
2019-01-06T01:41:39.421Z,10.30
2019-01-06T01:42:39.379Z,10.30
2019-01-06T01:43:39.335Z,12.00
2019-01-06T01:44:39.298Z,11.40
2019-01-06T01:45:39.256Z,11.40
2019-01-06T01:46:39.211Z,12.00
2019-01-06T01:47:39.173Z,12.60
2019-01-06T01:48:39.123Z,13.00
2019-01-06T01:49:39.081Z,12.70
2019-01-06T01:50:39.041Z,13.60
2019-01-06T01:51:39.000Z,13.20
2019-01-06T01:52:38.950Z,13.60
2019-01-06T01:53:38.912Z,14.30
2019-01-06T01:54:38.867Z,13.60
2019-01-06T01:55:38.823Z,13.60
2019-01-06T01:56:38.788Z,13.20
2019-01-06T01:57:38.741Z,14.30
2019-01-06T01:58:38.699Z,14.40
2019-01-06T01:59:38.662Z,14.30
2019-01-06T02:00:38.611Z,14.40
2019-01-06T02:01:38.570Z,14.40
2019-01-06T02:02:38.527Z,14.90
2019-01-06T02:03:38.483Z,15.30
2019-01-06T02:04:38.445Z,15.60
2019-01-06T02:05:38.402Z,15.40
2019-01-06T02:06:38.360Z,16.00
2019-01-06T02:07:38.312Z,15.20
2019-01-06T02:08:38.331Z,14.70
2019-01-06T02:09:38.230Z,16.30
2019-01-06T02:10:38.188Z,16.00
2019-01-06T02:11:38.147Z,16.10
2019-01-06T02:12:38.100Z,14.90
2019-01-06T02:13:38.058Z,15.50
2019-01-06T02:14:38.019Z,15.20
2019-01-06T02:15:37.977Z,15.80
2019-01-06T02:16:37.928Z,16.30
2019-01-06T02:17:37.887Z,15.50
2019-01-06T02:18:37.844Z,15.50
2019-01-06T02:19:37.800Z,15.90
2019-01-06T02:20:37.766Z,15.10
2019-01-06T02:21:37.720Z,15.90
2019-01-06T02:22:37.674Z,16.30
2019-01-06T02:23:37.629Z,15.70
2019-01-06T02:24:37.596Z,15.50
2019-01-06T02:25:37.547Z,16.60
2019-01-06T02:26:37.506Z,15.40
2019-01-06T02:27:37.466Z,15.50
2019-01-06T02:28:37.415Z,15.00
2019-01-06T02:29:37.377Z,15.10
2019-01-06T02:30:37.333Z,14.30
2019-01-06T02:31:37.289Z,13.10
2019-01-06T02:32:37.255Z,13.40
2019-01-06T02:33:37.210Z,12.80
2019-01-06T02:34:37.166Z,13.80
2019-01-06T02:35:37.124Z,13.40
2019-01-06T02:36:37.075Z,13.70
2019-01-06T02:37:37.033Z,13.90
2019-01-06T02:38:37.012Z,13.30
2019-01-06T02:39:36.954Z,13.60
2019-01-06T02:40:36.904Z,13.00
2019-01-06T02:41:36.865Z,12.30
2019-01-06T02:42:36.821Z,14.00
2019-01-06T02:43:36.777Z,13.30
2019-01-06T02:44:36.740Z,13.10
2019-01-06T02:45:36.695Z,12.30
2019-01-06T02:46:36.652Z,13.60
2019-01-06T02:47:36.611Z,12.00
2019-01-06T02:48:36.564Z,12.00
2019-01-06T02:49:36.522Z,12.10
2019-01-06T02:50:36.479Z,12.70
2019-01-06T02:51:36.434Z,13.00
2019-01-06T02:52:36.398Z,12.90
2019-01-06T02:53:36.352Z,11.70
2019-01-06T02:54:36.309Z,11.70
2019-01-06T02:55:36.266Z,11.10
2019-01-06T02:56:36.226Z,11.00
2019-01-06T02:57:36.181Z,11.00
2019-01-06T02:58:36.141Z,11.10
2019-01-06T02:59:36.105Z,11.40
2019-01-06T03:00:36.051Z,11.80
2019-01-06T03:01:36.008Z,12.30
2019-01-06T03:02:35.967Z,10.90
2019-01-06T03:03:35.920Z,11.00
2019-01-06T03:04:35.889Z,11.00
2019-01-06T03:05:35.839Z,10.10
2019-01-06T03:06:35.798Z,9.60
2019-01-06T03:07:35.756Z,9.60
2019-01-06T03:08:35.708Z,11.20
2019-01-06T03:09:35.668Z,10.70
2019-01-06T03:10:35.628Z,10.40
2019-01-06T03:11:35.588Z,10.50
2019-01-06T03:12:35.540Z,9.50
2019-01-06T03:13:35.496Z,9.40
2019-01-06T03:14:35.454Z,9.70
2019-01-06T03:15:35.409Z,9.70
2019-01-06T03:16:35.368Z,9.50
2019-01-06T03:17:35.341Z,9.30
2019-01-06T03:18:35.288Z,8.40
2019-01-06T03:19:35.244Z,9.20
2019-01-06T03:20:35.197Z,8.90
2019-01-06T03:21:35.153Z,8.30
2019-01-06T03:22:35.111Z,8.90
2019-01-06T03:23:35.068Z,8.80
2019-01-06T03:24:35.030Z,8.50
2019-01-06T03:25:34.985Z,8.40
2019-01-06T03:26:34.940Z,8.40
2019-01-06T03:27:34.895Z,8.40
2019-01-06T03:28:34.859Z,9.00
2019-01-06T03:29:34.816Z,7.60
2019-01-06T03:30:34.810Z,8.10
2019-01-06T03:31:34.745Z,8.00
2019-01-06T03:32:34.681Z,8.80
2019-01-06T03:33:34.641Z,8.80
2019-01-06T03:34:34.597Z,8.30
2019-01-06T03:35:34.554Z,8.30
2019-01-06T03:36:34.515Z,8.90
2019-01-06T03:37:34.472Z,8.30
2019-01-06T03:38:34.442Z,8.50
2019-01-06T03:39:34.388Z,8.60
2019-01-06T03:40:34.338Z,8.70
2019-01-06T03:41:34.310Z,7.90
2019-01-06T03:42:34.260Z,8.50
2019-01-06T03:43:34.218Z,8.30
2019-01-06T03:44:34.172Z,8.40
2019-01-06T03:45:34.127Z,8.50
2019-01-06T03:46:34.087Z,8.80
2019-01-06T03:47:34.042Z,8.10
2019-01-06T03:48:34.003Z,8.10
2019-01-06T03:49:33.961Z,8.30
2019-01-06T03:50:33.915Z,8.80
2019-01-06T03:51:33.887Z,8.40
2019-01-06T04:06:42.339Z,6.60
2019-01-06T04:07:42.256Z,6.30
2019-01-06T04:08:42.203Z,7.90
2019-01-06T04:09:42.157Z,9.40
2019-01-06T04:10:42.116Z,8.60
2019-01-06T04:11:42.068Z,8.80
2019-01-06T04:12:42.028Z,8.50
2019-01-06T04:13:41.979Z,8.40
2019-01-06T04:14:41.938Z,8.20
2019-01-06T04:15:41.893Z,8.50
2019-01-06T04:16:41.843Z,8.30
2019-01-06T04:17:41.819Z,7.80
2019-01-06T04:18:41.757Z,7.40
2019-01-06T04:19:41.712Z,7.80
2019-01-06T04:20:41.681Z,7.50
2019-01-06T04:21:41.627Z,7.60
2019-01-06T04:22:41.582Z,7.90
2019-01-06T04:23:41.536Z,7.60
2019-01-06T04:24:41.501Z,7.90
2019-01-06T04:25:41.456Z,7.20
2019-01-06T04:26:41.410Z,7.40
2019-01-06T04:27:41.369Z,7.70
2019-01-06T04:28:41.322Z,7.00
2019-01-06T04:29:41.279Z,6.60
2019-01-06T04:30:41.238Z,7.00
2019-01-06T04:31:41.191Z,7.10
2019-01-06T04:32:41.155Z,6.60
2019-01-06T04:33:41.109Z,6.80
2019-01-06T04:34:41.066Z,7.20
2019-01-06T04:35:41.033Z,6.60
2019-01-06T04:36:41.019Z,6.60
2019-01-06T04:37:40.935Z,6.50
2019-01-06T04:38:40.895Z,6.80
2019-01-06T04:39:40.855Z,6.20
2019-01-06T04:40:40.804Z,6.50
2019-01-06T04:41:40.763Z,6.40
2019-01-06T04:42:40.720Z,6.20
2019-01-06T04:43:40.676Z,6.80
2019-01-06T04:44:40.638Z,6.20
2019-01-06T04:45:40.593Z,6.50
2019-01-06T04:46:40.551Z,6.70
2019-01-06T04:47:40.510Z,6.20
2019-01-06T04:48:40.463Z,6.00
2019-01-06T04:49:40.420Z,6.10
2019-01-06T04:50:40.378Z,6.00
2019-01-06T04:51:40.332Z,6.30
2019-01-06T04:52:40.298Z,5.90
2019-01-06T04:53:40.250Z,5.50
2019-01-06T04:54:40.207Z,5.90
2019-01-06T04:55:40.164Z,5.90
2019-01-06T04:56:40.125Z,5.80
2019-01-06T04:57:40.079Z,5.40
2019-01-06T04:58:40.037Z,5.80
2019-01-06T04:59:39.996Z,6.10
2019-01-06T05:00:39.948Z,5.70
2019-01-06T05:01:39.907Z,5.70
2019-01-06T05:02:39.864Z,5.60
2019-01-06T05:03:39.819Z,6.10
2019-01-06T05:04:39.782Z,5.50
2019-01-06T05:05:39.738Z,5.00
2019-01-06T05:06:39.695Z,5.60
2019-01-06T05:07:39.659Z,5.50
2019-01-06T05:08:39.606Z,5.40
2019-01-06T05:09:39.564Z,5.30
2019-01-06T05:10:39.530Z,5.40
2019-01-06T05:11:39.483Z,5.40
2019-01-06T05:12:39.435Z,5.50
2019-01-06T05:13:39.395Z,5.50
2019-01-06T05:14:39.353Z,5.60
2019-01-06T05:15:39.305Z,5.30
2019-01-06T05:16:39.270Z,6.10
2019-01-06T05:17:39.224Z,5.60
2019-01-06T05:18:39.185Z,5.60
2019-01-06T05:19:39.141Z,6.10
2019-01-06T05:20:39.093Z,6.00
2019-01-06T05:21:39.054Z,6.00
2019-01-06T05:22:39.009Z,6.20
2019-01-06T05:23:38.966Z,6.30
2019-01-06T05:24:38.928Z,6.30
2019-01-06T05:25:38.884Z,6.50
2019-01-06T05:26:38.839Z,7.00
2019-01-06T05:27:38.793Z,6.20
2019-01-06T05:28:38.760Z,6.50
2019-01-06T05:29:38.719Z,7.00
2019-01-06T05:30:38.670Z,6.80
2019-01-06T05:31:38.632Z,6.80
2019-01-06T05:32:38.581Z,6.80
2019-01-06T05:33:38.540Z,7.20
2019-01-06T05:34:38.497Z,7.40
2019-01-06T05:35:38.453Z,7.20
2019-01-06T05:36:38.416Z,7.00
2019-01-06T05:37:38.371Z,6.50
2019-01-06T05:38:38.328Z,7.00
2019-01-06T05:39:38.288Z,6.70
2019-01-06T05:40:38.253Z,7.30
2019-01-06T05:41:38.197Z,7.20
2019-01-06T05:42:38.158Z,6.70
2019-01-06T05:43:38.116Z,7.00
2019-01-06T05:44:38.068Z,6.90
2019-01-06T05:45:38.033Z,6.80
2019-01-06T05:46:37.984Z,6.70
2019-01-06T05:47:37.940Z,6.30
2019-01-06T05:48:37.906Z,6.00
2019-01-06T05:49:37.863Z,6.30
2019-01-06T05:50:37.816Z,6.10
2019-01-06T05:51:37.776Z,6.90
2019-01-06T05:52:37.731Z,5.70
2019-01-06T05:53:37.686Z,5.70
2019-01-06T05:54:37.644Z,5.70
2019-01-06T05:55:37.600Z,5.60
2019-01-06T05:56:37.563Z,5.50
2019-01-06T05:57:37.518Z,5.80
2019-01-06T05:58:37.473Z,5.20
2019-01-06T05:59:37.428Z,6.10
2019-01-06T06:00:37.393Z,5.60
2019-01-06T06:01:37.348Z,5.90
2019-01-06T06:02:37.304Z,6.10
2019-01-06T06:03:37.264Z,5.40
2019-01-06T06:04:37.215Z,6.30
2019-01-06T06:05:37.174Z,6.10
2019-01-06T06:06:37.132Z,6.50
2019-01-06T06:07:37.087Z,6.20
2019-01-06T06:08:37.052Z,6.50
2019-01-06T06:09:37.006Z,6.00
2019-01-06T06:10:36.964Z,6.70
2019-01-06T06:11:36.925Z,6.70
2019-01-06T06:12:36.875Z,6.90
2019-01-06T06:13:36.834Z,6.80
2019-01-06T06:14:36.796Z,6.60
2019-01-06T06:15:36.753Z,6.90
2019-01-06T06:16:36.707Z,7.10
2019-01-06T06:17:36.663Z,7.30
2019-01-06T06:18:36.622Z,7.70
2019-01-06T06:19:36.577Z,7.20
2019-01-06T06:20:36.542Z,7.40
2019-01-06T06:21:36.496Z,6.80
2019-01-06T06:22:36.454Z,6.50
2019-01-06T06:23:36.414Z,7.20
2019-01-06T06:24:36.365Z,6.50
2019-01-06T06:25:36.324Z,6.60
2019-01-06T06:26:36.280Z,7.00
2019-01-06T06:27:36.237Z,6.90
2019-01-06T06:28:36.199Z,7.20
2019-01-06T06:29:36.155Z,6.70
2019-01-06T06:30:36.111Z,7.50
2019-01-06T06:31:36.065Z,6.90
2019-01-06T06:32:36.029Z,6.10
2019-01-06T06:33:35.987Z,7.00
2019-01-06T06:34:35.942Z,6.50
2019-01-06T06:35:35.902Z,7.20
2019-01-06T06:36:35.852Z,7.10
2019-01-06T06:37:35.815Z,6.80
2019-01-06T06:38:35.770Z,7.00
2019-01-06T06:39:35.726Z,6.40
2019-01-06T06:40:35.689Z,7.20
2019-01-06T06:41:35.643Z,6.70
2019-01-06T06:42:35.602Z,6.50
2019-01-06T06:43:35.562Z,6.30
2019-01-06T06:44:35.519Z,6.80
2019-01-06T06:45:35.477Z,6.20
2019-01-06T06:46:35.430Z,6.40
2019-01-06T06:47:35.390Z,6.40
2019-01-06T06:48:35.342Z,6.30
2019-01-06T06:49:35.300Z,6.60
2019-01-06T06:50:35.259Z,6.90
2019-01-06T06:51:35.214Z,6.80
2019-01-06T06:52:35.236Z,6.60
2019-01-06T06:53:35.132Z,6.80
2019-01-06T06:54:35.090Z,6.70
2019-01-06T06:55:35.053Z,6.80
2019-01-06T06:56:35.001Z,6.60
2019-01-06T06:57:34.960Z,6.70
2019-01-06T06:58:34.918Z,6.30
2019-01-06T06:59:34.874Z,6.50
2019-01-06T07:00:34.837Z,6.40
2019-01-06T07:01:34.792Z,6.70
2019-01-06T07:02:34.747Z,6.90
2019-01-06T07:03:34.703Z,7.10
2019-01-06T07:04:34.667Z,7.00
2019-01-06T07:05:34.624Z,7.10
2019-01-06T07:06:34.580Z,7.30
2019-01-06T07:07:34.541Z,7.30
2019-01-06T07:08:34.491Z,7.30
2019-01-06T07:09:34.449Z,8.00
2019-01-06T07:10:34.407Z,8.40
2019-01-06T07:11:34.363Z,8.20
2019-01-06T07:12:34.327Z,8.30
2019-01-06T07:13:34.281Z,8.40
2019-01-06T07:14:34.239Z,7.60
2019-01-06T07:15:34.200Z,7.90
2019-01-06T07:16:34.152Z,8.10
2019-01-06T07:17:34.109Z,9.10
2019-01-06T07:18:34.117Z,8.60
2019-01-06T07:19:34.028Z,8.90
2019-01-06T07:20:33.980Z,10.00
2019-01-06T07:21:33.938Z,9.30
2019-01-06T07:22:33.893Z,9.70
2019-01-06T07:23:33.851Z,9.70
2019-01-06T07:24:33.846Z,9.50
2019-01-06T07:25:33.769Z,9.20
2019-01-06T07:26:33.728Z,10.00
2019-01-06T07:27:33.686Z,9.60
2019-01-06T07:28:33.638Z,9.40
2019-01-06T07:29:33.598Z,10.40
2019-01-06T07:30:33.555Z,10.70
2019-01-06T07:31:33.510Z,11.20
2019-01-06T07:32:33.474Z,10.50
2019-01-06T07:33:33.429Z,11.30
2019-01-06T07:34:33.382Z,10.90
2019-01-06T07:35:33.340Z,11.40
2019-01-06T07:36:33.302Z,11.30
2019-01-06T07:37:33.256Z,10.90
2019-01-06T07:38:33.214Z,10.90
2019-01-06T07:39:33.174Z,11.50
2019-01-06T07:40:33.130Z,11.50
2019-01-06T07:41:33.087Z,11.90
2019-01-06T07:42:33.042Z,11.90
2019-01-06T07:43:32.997Z,11.70
2019-01-06T07:44:32.961Z,12.30
2019-01-06T07:45:32.915Z,12.10
2019-01-06T07:46:32.872Z,12.80
2019-01-06T07:47:32.833Z,12.50
2019-01-06T07:48:32.783Z,12.70
2019-01-06T07:49:32.742Z,12.60
2019-01-06T07:50:32.701Z,12.50
2019-01-06T07:51:32.664Z,13.60
2019-01-06T07:52:32.612Z,12.70
2019-01-06T07:53:32.570Z,13.50
2019-01-06T07:54:32.528Z,14.30
2019-01-06T07:55:32.483Z,21.50
2019-01-06T07:56:32.448Z,29.40
2019-01-06T07:57:32.409Z,19.20
2019-01-06T07:58:32.359Z,15.30
2019-01-06T07:59:32.320Z,13.20
2019-01-06T08:00:32.271Z,14.00
2019-01-06T08:01:32.229Z,13.30
2019-01-06T08:02:32.188Z,13.30
2019-01-06T08:03:32.142Z,13.60
2019-01-06T08:04:32.106Z,13.10
2019-01-06T08:05:32.060Z,13.00
2019-01-06T08:06:32.017Z,13.20
2019-01-06T08:07:31.971Z,13.40
2019-01-06T08:08:31.936Z,12.90
2019-01-06T08:09:31.890Z,13.20
2019-01-06T08:10:31.910Z,13.20
2019-01-06T08:11:31.807Z,13.10
2019-01-06T08:12:31.758Z,13.50
2019-01-06T08:13:31.717Z,13.10
2019-01-06T08:14:31.674Z,13.20
2019-01-06T08:15:31.629Z,14.00
2019-01-06T08:16:31.593Z,12.90
2019-01-06T08:17:31.548Z,13.20
2019-01-06T08:18:31.512Z,13.60
2019-01-06T08:19:31.465Z,13.50
2019-01-06T08:20:32.855Z,13.50
2019-01-06T08:21:31.378Z,14.10
2019-01-06T08:22:31.414Z,12.60
2019-01-06T08:23:31.295Z,13.80
2019-01-06T08:24:31.248Z,14.30
2019-01-06T08:25:31.205Z,13.80
2019-01-06T08:26:31.163Z,13.80
2019-01-06T08:27:31.120Z,12.80
2019-01-06T08:28:31.082Z,14.50
2019-01-06T08:29:31.037Z,15.30
2019-01-06T08:30:30.994Z,13.80
2019-01-06T08:31:30.954Z,16.00
2019-01-06T08:32:30.906Z,14.60
2019-01-06T08:33:30.863Z,16.80
2019-01-06T08:34:30.828Z,17.70
2019-01-06T08:35:30.778Z,15.70
2019-01-06T08:36:30.740Z,15.50
2019-01-06T08:37:30.697Z,13.90
2019-01-06T08:38:30.651Z,13.50
2019-01-06T08:39:30.606Z,12.60
2019-01-06T08:40:30.571Z,12.30
2019-01-06T08:41:30.524Z,13.50
2019-01-06T08:42:30.484Z,13.50
2019-01-06T08:43:30.442Z,13.50
2019-01-06T08:44:30.394Z,25.90
2019-01-06T08:45:30.351Z,18.90
2019-01-06T08:46:30.309Z,12.20
2019-01-06T08:47:30.264Z,12.40
2019-01-06T08:48:30.228Z,11.50
2019-01-06T08:49:30.183Z,10.90
2019-01-06T08:50:30.141Z,11.00
2019-01-06T08:51:30.099Z,12.50
2019-01-06T08:52:30.051Z,11.50
2019-01-06T08:53:30.011Z,9.80
2019-01-06T08:54:29.969Z,10.40
2019-01-06T08:55:29.928Z,10.10
2019-01-06T08:56:29.881Z,10.20
2019-01-06T08:57:29.839Z,10.10
2019-01-06T08:58:29.797Z,9.40
2019-01-06T08:59:29.752Z,9.60
2019-01-06T09:00:29.715Z,10.80
2019-01-06T09:01:29.670Z,9.60
2019-01-06T09:02:29.627Z,9.30
2019-01-06T09:03:29.587Z,8.90
2019-01-06T09:04:29.541Z,10.10
2019-01-06T09:05:29.498Z,11.20
2019-01-06T09:06:29.454Z,9.90
2019-01-06T09:07:29.410Z,10.60
2019-01-06T09:08:29.374Z,10.30
2019-01-06T09:09:29.328Z,12.30
2019-01-06T09:10:29.285Z,10.00
2019-01-06T09:11:29.240Z,9.00
2019-01-06T09:12:29.203Z,10.00
2019-01-06T09:13:29.157Z,9.90
2019-01-06T09:14:29.117Z,9.30
2019-01-06T09:15:29.076Z,8.70
2019-01-06T09:16:29.028Z,8.80
2019-01-06T09:17:28.987Z,8.30
2019-01-06T09:18:28.942Z,9.10
2019-01-06T09:19:28.901Z,8.00
2019-01-06T09:20:28.862Z,8.80
2019-01-06T09:21:28.821Z,11.70
2019-01-06T09:22:28.778Z,12.70
2019-01-06T09:23:28.733Z,13.40
2019-01-06T09:24:28.690Z,8.80
2019-01-06T09:25:28.647Z,7.40
2019-01-06T09:26:28.608Z,7.00
2019-01-06T09:27:28.563Z,7.20
2019-01-06T09:28:28.558Z,8.70
2019-01-06T09:29:28.474Z,9.40
2019-01-06T09:30:28.432Z,7.70
2019-01-06T09:31:28.391Z,7.90
2019-01-06T09:32:28.351Z,8.20
2019-01-06T09:33:28.374Z,7.80
2019-01-06T09:34:28.268Z,9.20
2019-01-06T09:35:28.225Z,8.70
2019-01-06T09:36:28.185Z,8.10
2019-01-06T09:37:28.135Z,7.20
2019-01-06T09:38:28.092Z,7.30
2019-01-06T09:39:28.052Z,7.40
2019-01-06T09:40:28.012Z,6.90
2019-01-06T09:41:27.970Z,7.00
2019-01-06T09:42:27.923Z,7.30
2019-01-06T09:43:27.882Z,7.50
2019-01-06T09:44:27.844Z,7.50
2019-01-06T09:45:27.802Z,6.80
2019-01-06T09:46:27.759Z,7.40
2019-01-06T09:47:27.715Z,7.60
2019-01-06T09:48:27.670Z,6.30
2019-01-06T09:49:27.625Z,6.70
2019-01-06T09:50:27.583Z,6.50
2019-01-06T09:51:27.543Z,6.40
2019-01-06T09:52:27.502Z,6.10
2019-01-06T09:53:27.463Z,6.30
2019-01-06T10:20:04.962Z,5.00
2019-01-06T10:21:04.884Z,5.00
2019-01-06T10:22:04.847Z,6.40
2019-01-06T10:23:04.799Z,6.70
2019-01-06T10:24:05.648Z,6.30
2019-01-06T10:25:04.709Z,6.60
2019-01-06T10:26:04.662Z,6.30
2019-01-06T10:27:04.617Z,6.60
2019-01-06T10:28:04.575Z,6.80
2019-01-06T10:29:04.563Z,7.00
2019-01-06T10:30:04.538Z,7.10
2019-01-06T10:31:04.450Z,6.70
2019-01-06T10:33:47.545Z,6.20
2019-01-06T10:34:47.471Z,6.10
2019-01-06T10:35:47.425Z,6.30
2019-01-06T10:36:47.389Z,6.20
2019-01-06T10:37:47.343Z,6.20
2019-01-06T10:38:47.300Z,6.30
2019-01-06T10:39:47.261Z,6.30
2019-01-06T10:40:47.211Z,6.10
2019-01-06T10:41:47.174Z,5.80
2019-01-06T10:42:47.127Z,5.90
2019-01-06T10:43:47.085Z,6.20
2019-01-06T10:44:47.046Z,6.30
2019-01-06T10:45:47.001Z,5.60
2019-01-06T10:46:46.958Z,5.70
2019-01-06T10:47:46.915Z,5.80
2019-01-06T10:48:46.884Z,5.50
2019-01-06T10:49:46.833Z,6.60
2019-01-06T10:50:46.788Z,6.00
2019-01-06T10:51:46.751Z,6.10
2019-01-06T10:52:46.700Z,6.50
2019-01-06T10:53:46.662Z,5.90
2019-01-06T10:54:46.617Z,6.50
2019-01-06T10:55:46.573Z,5.70
2019-01-06T10:56:46.538Z,5.50
2019-01-06T10:57:46.493Z,5.70
2019-01-06T10:58:46.451Z,5.90
2019-01-06T10:59:46.410Z,6.10
2019-01-06T11:00:46.362Z,5.80
2019-01-06T11:01:46.324Z,5.20
2019-01-06T11:02:46.281Z,5.20
2019-01-06T11:03:46.243Z,5.70
2019-01-06T11:04:46.194Z,5.80
2019-01-06T11:05:46.153Z,5.70
2019-01-06T11:06:46.109Z,5.80
2019-01-06T11:07:46.066Z,6.20
2019-01-06T11:08:46.031Z,5.90
2019-01-06T11:09:45.987Z,5.80
2019-01-06T11:10:45.945Z,6.20
2019-01-06T11:11:45.902Z,5.90
2019-01-06T11:12:45.857Z,5.60
2019-01-06T11:13:45.815Z,5.80
2019-01-06T11:14:45.778Z,5.80
2019-01-06T11:15:45.732Z,5.90
2019-01-06T11:16:45.693Z,5.90
2019-01-06T11:17:45.652Z,6.40
2019-01-06T11:18:45.602Z,5.70
2019-01-06T11:19:45.561Z,5.60
2019-01-06T11:20:45.522Z,5.40
2019-01-06T11:21:45.481Z,5.50
2019-01-06T11:22:45.439Z,5.00
2019-01-06T11:23:45.397Z,5.10
2019-01-06T11:24:45.359Z,5.40
2019-01-06T11:25:45.306Z,5.30
2019-01-06T11:26:45.264Z,5.20
2019-01-06T11:27:45.225Z,6.00
2019-01-06T11:28:45.187Z,5.40
2019-01-06T11:29:45.145Z,5.20
2019-01-06T11:30:45.100Z,5.70
2019-01-06T11:31:45.059Z,5.90
2019-01-06T11:32:45.015Z,5.30
2019-01-06T11:33:44.970Z,6.10
2019-01-06T11:34:44.933Z,5.50
2019-01-06T11:35:44.890Z,5.80
2019-01-06T11:36:44.846Z,5.60
2019-01-06T11:37:44.802Z,5.50
2019-01-06T11:38:44.759Z,5.50
2019-01-06T11:39:44.720Z,5.10
2019-01-06T11:40:44.679Z,5.60
2019-01-06T11:41:44.641Z,6.10
2019-01-06T11:42:44.597Z,5.20
2019-01-06T11:43:44.553Z,5.70
2019-01-06T11:44:44.511Z,5.60
2019-01-06T11:45:44.466Z,5.60
2019-01-06T11:46:44.423Z,5.00
2019-01-06T11:47:44.385Z,5.30
2019-01-06T11:48:44.343Z,5.60
2019-01-06T11:49:44.303Z,6.20
2019-01-06T11:50:44.254Z,6.40
2019-01-06T11:51:44.214Z,5.50
2019-01-06T11:52:44.175Z,6.40
2019-01-06T11:53:44.135Z,5.80
2019-01-06T11:54:44.093Z,6.50
2019-01-06T11:55:44.070Z,6.00
2019-01-06T11:56:44.004Z,5.50
2019-01-06T11:57:43.961Z,5.70
2019-01-06T11:58:43.920Z,5.80
2019-01-06T11:59:43.892Z,6.00
2019-01-06T12:00:43.839Z,5.40
2019-01-06T12:01:43.804Z,5.00
2019-01-06T12:02:43.756Z,5.30
2019-01-06T12:03:43.715Z,5.10
2019-01-06T12:04:43.670Z,4.80
2019-01-06T12:05:43.626Z,4.80
2019-01-06T12:06:43.597Z,4.80
2019-01-06T12:07:43.546Z,4.90
2019-01-06T12:08:43.504Z,4.70
2019-01-06T12:09:43.457Z,5.30
2019-01-06T12:10:43.418Z,5.00
2019-01-06T12:11:43.374Z,5.10
2019-01-06T12:12:43.334Z,5.10
2019-01-06T12:13:43.296Z,5.30
2019-01-06T12:14:43.255Z,5.40
2019-01-06T12:15:43.210Z,5.10
2019-01-06T12:16:43.167Z,5.70
2019-01-06T12:17:43.123Z,5.60
2019-01-06T12:18:43.079Z,5.40
2019-01-06T12:19:43.040Z,5.40
2019-01-06T12:20:43.000Z,5.10
2019-01-06T12:21:42.961Z,4.60
2019-01-06T12:22:42.911Z,5.40
2019-01-06T12:23:42.871Z,5.50
2019-01-06T12:24:42.833Z,6.00
2019-01-06T12:25:42.794Z,5.00
2019-01-06T12:26:42.749Z,6.10
2019-01-06T12:27:42.705Z,5.70
2019-01-06T12:28:42.662Z,5.80
2019-01-06T12:29:42.620Z,5.60
2019-01-06T12:30:42.578Z,5.90
2019-01-06T12:31:42.535Z,6.00
2019-01-06T12:32:42.495Z,5.30
2019-01-06T12:33:42.492Z,5.90
2019-01-06T12:34:42.413Z,5.70
2019-01-06T12:35:42.372Z,6.00
2019-01-06T12:36:42.329Z,6.60
2019-01-06T12:37:42.283Z,5.80
2019-01-06T12:38:42.246Z,6.10
2019-01-06T12:39:42.204Z,6.20
2019-01-06T12:40:42.159Z,6.30
2019-01-06T12:41:42.114Z,6.40
2019-01-06T12:42:42.073Z,6.80
2019-01-06T12:43:42.032Z,6.80
2019-01-06T12:44:44.861Z,6.70
2019-01-06T12:45:41.952Z,7.40
2019-01-06T12:46:41.914Z,6.80
2019-01-06T12:47:41.867Z,7.50
2019-01-06T12:48:41.821Z,7.10
2019-01-06T12:49:41.778Z,7.20
2019-01-06T12:50:41.739Z,7.80
2019-01-06T12:51:43.696Z,8.00
2019-01-06T12:52:41.658Z,7.80
2019-01-06T12:53:41.616Z,8.10
2019-01-06T12:54:41.567Z,8.00
2019-01-06T12:55:41.527Z,8.20
2019-01-06T12:56:41.505Z,8.20
2019-01-06T12:57:44.508Z,8.30
2019-01-06T12:58:41.408Z,8.20
2019-01-06T12:59:41.362Z,8.20
2019-01-06T13:00:41.320Z,8.40
2019-01-06T13:01:41.281Z,9.20
2019-01-06T13:02:41.232Z,8.80
2019-01-06T13:03:41.192Z,9.10
2019-01-06T13:04:41.152Z,8.30
2019-01-06T13:05:41.113Z,7.90
2019-01-06T13:06:41.071Z,8.30
2019-01-06T13:07:41.025Z,8.80
2019-01-06T13:08:40.999Z,9.10
2019-01-06T13:09:40.938Z,8.50
2019-01-06T13:10:40.902Z,8.50
2019-01-06T13:11:40.858Z,8.60
2019-01-06T13:12:40.817Z,8.80
2019-01-06T13:13:40.771Z,9.20
2019-01-06T13:14:40.728Z,8.60
2019-01-06T13:15:40.688Z,9.50
2019-01-06T13:16:40.649Z,9.30
2019-01-06T13:17:40.614Z,9.00
2019-01-06T13:18:40.564Z,9.30
2019-01-06T13:19:40.570Z,9.60
2019-01-06T13:20:40.478Z,13.40
2019-01-06T13:21:40.435Z,15.40
2019-01-06T13:22:40.392Z,13.10
2019-01-06T13:23:40.351Z,9.80
2019-01-06T13:24:40.313Z,9.90
2019-01-06T13:25:40.272Z,9.40
2019-01-06T13:26:40.223Z,10.00
2019-01-06T13:27:40.184Z,10.10
2019-01-06T13:28:40.147Z,10.40
2019-01-06T13:29:40.103Z,10.00
2019-01-06T13:30:40.063Z,9.90
2019-01-06T13:31:40.018Z,10.60
2019-01-06T13:32:39.977Z,10.00
2019-01-06T13:33:39.930Z,10.40
2019-01-06T13:34:39.887Z,10.60
2019-01-06T13:35:39.847Z,10.40
2019-01-06T13:36:39.809Z,9.80
2019-01-06T13:37:39.771Z,9.90
2019-01-06T13:38:39.724Z,10.90
2019-01-06T13:39:39.681Z,9.70
2019-01-06T13:40:39.640Z,10.00
2019-01-06T13:41:39.597Z,9.60
2019-01-06T13:42:39.556Z,9.80
2019-01-06T13:43:39.514Z,9.20
2019-01-06T13:44:39.469Z,10.30
2019-01-06T13:45:39.426Z,9.60
2019-01-06T13:46:39.382Z,7.90
2019-01-06T13:47:39.344Z,9.50
2019-01-06T13:48:39.312Z,7.70
2019-01-06T13:49:39.264Z,7.40
2019-01-06T13:50:39.223Z,7.40
2019-01-06T13:51:39.178Z,7.60
2019-01-06T13:52:39.134Z,6.90